Alpine Marie — H3UD — position and weather

sailwx.info

Track history (hours):
 
Tides and Currents Weather Stations Pressure Air Temp Water Temp Dewpoint Dewpoint Depression Visibility Wind Speed Wind Dir Waves Ship Positions

Alpine Marie

Last reported at 2015-Mar-01 01:05 UTC. Time now 2015-Mar-27 03:37 UTC.
Position N 33°59' E 134°59'.
Warning: this ship's position is 26 days out of date.

Length 172 m; draft 11.7 m.

Type: Tanker. MMSI: 353172000.

Date/timePositionNaut miles runAvg speedWind from/ knotsBaromVisibWave heightAir tempDewpointWater temp
2015-Mar-01 01:05N 33°59' E 134°59'510.1
2015-Mar-01 00:33N 34°05' E 134°60'7 7.0
2015-Feb-28 23:33N 34°07' E 135°08'0 0.2
2015-Feb-28 22:27N 34°07' E 135°08'0 0.0
2015-Feb-28 21:33N 34°07' E 135°08'0 0.0
2015-Feb-28 20:33N 34°07' E 135°08'0 0.0
2015-Feb-28 19:27N 34°07' E 135°08'0 0.0
2015-Feb-28 18:33N 34°07' E 135°08'0 0.0
2015-Feb-28 17:33N 34°07' E 135°08'0 0.0
2015-Feb-28 16:33N 34°07' E 135°08'0 0.0
2015-Feb-28 15:33N 34°07' E 135°08'0 0.0
2015-Feb-28 14:33N 34°07' E 135°08'0 0.0
2015-Feb-28 13:33N 34°07' E 135°08'0 0.0
2015-Feb-28 12:21N 34°07' E 135°08'0 0.0
2015-Feb-28 11:27N 34°07' E 135°08'0 0.0
2015-Feb-28 10:21N 34°07' E 135°08'0 0.0
2015-Feb-28 07:21N 34°07' E 135°08'0 0.0
2015-Feb-28 05:21N 34°07' E 135°08'0 0.0
2015-Feb-28 03:15N 34°07' E 135°08'0 0.0
2015-Feb-28 02:33N 34°07' E 135°08'0 0.0
2015-Feb-28 01:03N 34°07' E 135°08'0 0.0
2015-Feb-28 00:33N 34°07' E 135°08'0 0.0
2015-Feb-27 20:27N 34°07' E 135°08'0 0.0
2015-Feb-27 17:27N 34°07' E 135°08'0 0.0
2015-Feb-27 16:33N 34°07' E 135°08'0 0.0
2015-Feb-27 15:33N 34°07' E 135°08'0 0.0
2015-Feb-27 14:33N 34°07' E 135°08'0 0.0
2015-Feb-27 13:33N 34°07' E 135°08'0 0.0
2015-Feb-27 12:21N 34°07' E 135°08'0 0.0
2015-Feb-27 11:15N 34°07' E 135°08'0 0.0
2015-Feb-27 09:21N 34°07' E 135°08'0 0.0
2015-Feb-27 08:27N 34°07' E 135°08'0 0.0
2015-Feb-27 07:33N 34°07' E 135°08'0 0.0
2015-Feb-27 06:33N 34°07' E 135°08'0 0.0
2015-Feb-27 05:33N 34°07' E 135°08'0 0.0
2015-Feb-27 03:27N 34°07' E 135°08'0 0.0
2015-Feb-27 00:32N 34°07' E 135°08'2 1.7
2015-Feb-26 23:33N 34°08' E 135°06'0 0.0
2015-Feb-26 22:33N 34°08' E 135°06'0 0.1
2015-Feb-26 21:33N 34°08' E 135°06'0 0.0
2015-Feb-26 20:33N 34°08' E 135°06'0 0.0
2015-Feb-26 19:33N 34°08' E 135°06'0 0.0
2015-Feb-26 18:33N 34°08' E 135°06'0 0.0
2015-Feb-26 17:33N 34°08' E 135°06'0 0.1
2015-Feb-26 16:33N 34°08' E 135°06'0 0.1
2015-Feb-26 15:33N 34°08' E 135°06'0 0.1
2015-Feb-26 14:33N 34°08' E 135°06'0 0.0
2015-Feb-26 13:33N 34°08' E 135°06'0 0.0
2015-Feb-26 12:33N 34°08' E 135°06'0 0.0
2015-Feb-26 11:33N 34°08' E 135°06'0 0.0
2015-Feb-26 10:33N 34°08' E 135°06'0 0.0
2015-Feb-26 09:33N 34°08' E 135°06'0 0.0
2015-Feb-26 08:33N 34°08' E 135°06'0 0.1
2015-Feb-26 07:33N 34°08' E 135°06'0 0.0
2015-Feb-26 06:33N 34°08' E 135°06'0 0.0
2015-Feb-26 05:33N 34°08' E 135°06'0 0.0
2015-Feb-26 04:33N 34°08' E 135°06'0 0.1
2015-Feb-26 03:33N 34°08' E 135°06'0 0.1
2015-Feb-26 02:33N 34°08' E 135°06'0 0.0
2015-Feb-26 01:33N 34°08' E 135°06'0 0.0
2015-Feb-26 00:33N 34°08' E 135°06'1 0.8
2015-Feb-25 23:33N 34°08' E 135°05'5 4.9
2015-Feb-25 22:33N 34°06' E 134°60'8 7.8
2015-Feb-25 21:33N 33°59' E 134°58'  
Track history (hours):
 
Tides and Currents Weather Stations Pressure Air Temp Water Temp Dewpoint Dewpoint Depression Visibility Wind Speed Wind Dir Waves Ship Positions

Alpine Marie

Last reported at 2015-Mar-01 01:05 UTC. Time now 2015-Mar-27 03:37 UTC.
Position N 33°59' E 134°59'.
Warning: this ship's position is 26 days out of date.

Length 172 m; draft 11.7 m.

Type: Tanker. MMSI: 353172000.

Date/timePositionNaut miles runAvg speedWind from/ knotsBaromVisibWave heightAir tempDewpointWater temp
2015-Mar-01 01:05N 33°59' E 134°59'510.1
2015-Mar-01 00:33N 34°05' E 134°60'7 7.0
2015-Feb-28 23:33N 34°07' E 135°08'0 0.2
2015-Feb-28 22:27N 34°07' E 135°08'0 0.0
2015-Feb-28 21:33N 34°07' E 135°08'0 0.0
2015-Feb-28 20:33N 34°07' E 135°08'0 0.0
2015-Feb-28 19:27N 34°07' E 135°08'0 0.0
2015-Feb-28 18:33N 34°07' E 135°08'0 0.0
2015-Feb-28 17:33N 34°07' E 135°08'0 0.0
2015-Feb-28 16:33N 34°07' E 135°08'0 0.0
2015-Feb-28 15:33N 34°07' E 135°08'0 0.0
2015-Feb-28 14:33N 34°07' E 135°08'0 0.0
2015-Feb-28 13:33N 34°07' E 135°08'0 0.0
2015-Feb-28 12:21N 34°07' E 135°08'0 0.0
2015-Feb-28 11:27N 34°07' E 135°08'0 0.0
2015-Feb-28 10:21N 34°07' E 135°08'0 0.0
2015-Feb-28 07:21N 34°07' E 135°08'0 0.0
2015-Feb-28 05:21N 34°07' E 135°08'0 0.0
2015-Feb-28 03:15N 34°07' E 135°08'0 0.0
2015-Feb-28 02:33N 34°07' E 135°08'0 0.0
2015-Feb-28 01:03N 34°07' E 135°08'0 0.0
2015-Feb-28 00:33N 34°07' E 135°08'0 0.0
2015-Feb-27 20:27N 34°07' E 135°08'0 0.0
2015-Feb-27 17:27N 34°07' E 135°08'0 0.0
2015-Feb-27 16:33N 34°07' E 135°08'0 0.0
2015-Feb-27 15:33N 34°07' E 135°08'0 0.0
2015-Feb-27 14:33N 34°07' E 135°08'0 0.0
2015-Feb-27 13:33N 34°07' E 135°08'0 0.0
2015-Feb-27 12:21N 34°07' E 135°08'0 0.0
2015-Feb-27 11:15N 34°07' E 135°08'0 0.0
2015-Feb-27 09:21N 34°07' E 135°08'0 0.0
2015-Feb-27 08:27N 34°07' E 135°08'0 0.0
2015-Feb-27 07:33N 34°07' E 135°08'0 0.0
2015-Feb-27 06:33N 34°07' E 135°08'0 0.0
2015-Feb-27 05:33N 34°07' E 135°08'0 0.0
2015-Feb-27 03:27N 34°07' E 135°08'0 0.0
2015-Feb-27 00:32N 34°07' E 135°08'2 1.7
2015-Feb-26 23:33N 34°08' E 135°06'0 0.0
2015-Feb-26 22:33N 34°08' E 135°06'0 0.1
2015-Feb-26 21:33N 34°08' E 135°06'0 0.0
2015-Feb-26 20:33N 34°08' E 135°06'0 0.0
2015-Feb-26 19:33N 34°08' E 135°06'0 0.0
2015-Feb-26 18:33N 34°08' E 135°06'0 0.0
2015-Feb-26 17:33N 34°08' E 135°06'0 0.1
2015-Feb-26 16:33N 34°08' E 135°06'0 0.1
2015-Feb-26 15:33N 34°08' E 135°06'0 0.1
2015-Feb-26 14:33N 34°08' E 135°06'0 0.0
2015-Feb-26 13:33N 34°08' E 135°06'0 0.0
2015-Feb-26 12:33N 34°08' E 135°06'0 0.0
2015-Feb-26 11:33N 34°08' E 135°06'0 0.0
2015-Feb-26 10:33N 34°08' E 135°06'0 0.0
2015-Feb-26 09:33N 34°08' E 135°06'0 0.0
2015-Feb-26 08:33N 34°08' E 135°06'0 0.1
2015-Feb-26 07:33N 34°08' E 135°06'0 0.0
2015-Feb-26 06:33N 34°08' E 135°06'0 0.0
2015-Feb-26 05:33N 34°08' E 135°06'0 0.0
2015-Feb-26 04:33N 34°08' E 135°06'0 0.1
2015-Feb-26 03:33N 34°08' E 135°06'0 0.1
2015-Feb-26 02:33N 34°08' E 135°06'0 0.0
2015-Feb-26 01:33N 34°08' E 135°06'0 0.0
2015-Feb-26 00:33N 34°08' E 135°06'1 0.8
2015-Feb-25 23:33N 34°08' E 135°05'5 4.9
2015-Feb-25 22:33N 34°06' E 134°60'8 7.8
2015-Feb-25 21:33N 33°59' E 134°58'  

Dump ship's entire track history